Estación Meteorológica Peña el Pijo (Robertgarden) [ 12/10/18 11:16:03 CET ]

Fecha Hora Presion(HPa) Temp (°C) Humedad % Rocio (°C) Viento ( m/s) Direccion Lluvia 1Hora(mm) Lluvia 24H(mm) LLuvia Total(mm)
2018-Oct-15 01:01:35 1002.700 10.1 65 3.8       4.66 12.43
2018-Oct-15 02:01:31 1002.900 10.1 66 4.0       4.66 12.43
2018-Oct-15 03:01:39 1002.500 9.6 68 4.0       4.66 12.43
2018-Oct-15 04:01:39 1001.900 9.5 70 4.3       4.66 12.43
2018-Oct-15 05:01:39 1001.600 9.3 71 4.3       4.66 12.43
2018-Oct-15 06:01:58 1001.900 9.2 72 4.4       4.66 12.43
2018-Oct-15 07:01:46 1002.100 9.1 72 4.3       4.66 12.43
2018-Oct-15 08:01:30 1002.200 8.7 72 3.9       4.66 12.43
2018-Oct-15 09:01:41 1002.600 8.3 73 3.7       4.66 12.43
2018-Oct-15 10:01:27 1003.300 10.5 67 4.5       4.14 12.43
2018-Oct-15 11:01:45 1003.500 10.8 62 3.8       1.55 12.43
2018-Oct-15 12:01:43 1003.900 14.3 49 3.7       0.51 12.43
2018-Oct-15 13:01:38 1003.500 14.9 37 0.2 2.4 N     12.43
2018-Oct-15 14:01:43 1003.000 15.8 34 -0.2         12.43
2018-Oct-15 15:01:39 1002.800 16.4 29 -1.8         12.43
2018-Oct-15 16:01:44 1001.800 17.8 32 0.8         12.43
2018-Oct-15 17:02:01 1002.200 18.5 36 3.0         12.43
2018-Oct-15 18:01:36 1003.000 16.8 45 4.7         12.43
2018-Oct-15 19:01:57 1002.600 13.8 51 3.9         12.43
2018-Oct-15 20:01:53 1003.100 11.4 59 3.6         12.43
2018-Oct-15 21:01:46 1003.500 10.9 65 4.5         12.43
2018-Oct-15 22:01:47 1003.400 10.1 70 4.9         12.43
2018-Oct-15 23:02:06 1003.900 10.3 72 5.5         12.43

Temperatura Máxima:18°    Temperatura Mínima:
Presión Máxima:1003.900 Hpa    Presión Mínima:1001.600 Hpa


Volver